createdAt,value
2023-04-15T00:01:19.262Z,4.27
2023-04-15T00:03:48.765Z,4.43
2023-04-15T00:06:19.485Z,3.93
2023-04-15T00:08:47.990Z,4.77
2023-04-15T00:11:16.700Z,4.83
2023-04-15T00:13:45.753Z,4.40
2023-04-15T00:16:14.157Z,4.07
2023-04-15T00:18:42.710Z,4.97
2023-04-15T00:21:11.301Z,4.50
2023-04-15T00:23:41.429Z,4.53
2023-04-15T00:26:09.957Z,4.67
2023-04-15T00:28:38.542Z,4.83
2023-04-15T00:31:07.425Z,4.43
2023-04-15T00:33:36.835Z,4.93
2023-04-15T00:36:05.791Z,5.50
2023-04-15T00:38:34.312Z,5.20
2023-04-15T00:41:04.071Z,5.20
2023-04-15T00:43:32.422Z,5.43
2023-04-15T00:46:00.955Z,5.20
2023-04-15T00:48:29.443Z,6.23
2023-04-15T00:50:57.880Z,5.37
2023-04-15T00:53:26.514Z,5.27
2023-04-15T00:55:54.912Z,5.43
2023-04-15T00:58:24.692Z,4.83
2023-04-15T01:00:54.479Z,6.33
2023-04-15T01:03:23.075Z,5.50
2023-04-15T01:05:53.012Z,5.73
2023-04-15T01:08:21.460Z,5.20
2023-04-15T01:10:49.859Z,5.60
2023-04-15T01:13:18.227Z,5.53
2023-04-15T01:15:48.606Z,5.50
2023-04-15T01:18:17.443Z,5.40
2023-04-15T01:20:46.005Z,6.00
2023-04-15T01:23:14.420Z,6.03
2023-04-15T01:25:44.341Z,5.93
2023-04-15T01:28:13.050Z,5.30
2023-04-15T01:30:41.456Z,5.87
2023-04-15T01:33:09.771Z,5.43
2023-04-15T01:35:38.887Z,5.70
2023-04-15T01:38:08.422Z,5.97
2023-04-15T01:40:36.841Z,6.37
2023-04-15T01:43:06.619Z,6.50
2023-04-15T01:45:34.982Z,6.13
2023-04-15T01:48:03.564Z,5.87
2023-04-15T01:50:32.166Z,6.40
2023-04-15T01:53:00.735Z,6.03
2023-04-15T01:55:29.431Z,5.87
2023-04-15T01:57:57.960Z,5.97
2023-04-15T02:00:27.707Z,6.20
2023-04-15T02:02:56.201Z,6.17
2023-04-15T02:05:25.334Z,6.97
2023-04-15T02:07:53.823Z,6.50
2023-04-15T02:10:22.322Z,6.17
2023-04-15T02:12:50.808Z,6.13
2023-04-15T02:15:19.492Z,6.17
2023-04-15T02:17:51.207Z,6.47
2023-04-15T02:20:21.155Z,7.10
2023-04-15T02:22:49.620Z,6.23
2023-04-15T02:25:18.221Z,6.20
2023-04-15T02:27:46.592Z,6.20
2023-04-15T02:30:14.932Z,6.40
2023-04-15T02:32:45.294Z,6.20
2023-04-15T02:35:15.351Z,6.37
2023-04-15T02:37:45.910Z,6.67
2023-04-15T02:40:14.481Z,6.50
2023-04-15T02:42:42.946Z,6.50
2023-04-15T02:45:12.190Z,7.00
2023-04-15T02:47:41.698Z,6.10
2023-04-15T02:50:12.789Z,6.07
2023-04-15T02:52:42.832Z,6.80
2023-04-15T02:55:11.684Z,7.27
2023-04-15T02:57:41.189Z,6.67
2023-04-15T03:00:11.781Z,6.03
2023-04-15T03:02:41.154Z,6.77
2023-04-15T03:05:13.047Z,6.33
2023-04-15T03:07:42.822Z,6.80
2023-04-15T03:10:11.872Z,6.83
2023-04-15T03:12:40.987Z,6.27
2023-04-15T03:15:10.240Z,6.80
2023-04-15T03:17:38.720Z,7.20
2023-04-15T03:20:07.821Z,6.57
2023-04-15T03:22:36.423Z,6.40
2023-04-15T03:25:07.085Z,6.77
2023-04-15T03:27:35.439Z,6.90
2023-04-15T03:30:03.964Z,7.00
2023-04-15T03:32:32.507Z,6.90
2023-04-15T03:35:00.890Z,7.23
2023-04-15T03:37:29.394Z,6.83
2023-04-15T03:39:57.942Z,6.87
2023-04-15T03:42:27.748Z,7.13
2023-04-15T03:44:56.348Z,6.87
2023-04-15T03:47:24.942Z,6.83
2023-04-15T03:49:53.410Z,6.60
2023-04-15T03:52:21.780Z,6.77
2023-04-15T03:54:50.101Z,7.27
2023-04-15T03:57:18.409Z,7.30
2023-04-15T03:59:48.254Z,7.10
2023-04-15T04:02:16.692Z,6.83
2023-04-15T04:04:45.190Z,7.50
2023-04-15T04:07:16.836Z,7.77
2023-04-15T04:09:46.739Z,6.93
2023-04-15T04:12:15.774Z,7.00
2023-04-15T04:14:44.546Z,7.03
2023-04-15T04:17:14.407Z,6.90
2023-04-15T04:19:42.814Z,7.07
2023-04-15T04:22:11.372Z,7.13
2023-04-15T04:24:39.814Z,7.07
2023-04-15T04:27:08.219Z,7.50
2023-04-15T04:29:36.946Z,7.20
2023-04-15T04:32:05.390Z,7.70
2023-04-15T04:34:35.319Z,6.80
2023-04-15T04:37:03.826Z,7.10
2023-04-15T04:39:32.898Z,7.30
2023-04-15T04:42:01.463Z,7.40
2023-04-15T04:44:29.868Z,7.53
2023-04-15T04:46:59.640Z,7.70
2023-04-15T04:49:28.177Z,7.87
2023-04-15T04:51:58.174Z,7.37
2023-04-15T04:54:27.778Z,7.20
2023-04-15T04:56:57.895Z,7.20
2023-04-15T04:59:26.548Z,7.57
2023-04-15T05:01:54.943Z,7.90
2023-04-15T05:04:23.442Z,7.60
2023-04-15T05:06:51.763Z,7.33
2023-04-15T05:09:21.620Z,8.43
2023-04-15T05:11:50.035Z,8.00
2023-04-15T05:14:18.505Z,7.53
2023-04-15T05:16:46.957Z,7.80
2023-04-15T05:19:15.529Z,7.77
2023-04-15T05:21:43.982Z,7.63
2023-04-15T05:24:12.384Z,6.93
2023-04-15T05:26:42.966Z,8.03
2023-04-15T05:29:11.560Z,8.00
2023-04-15T05:31:40.177Z,8.27
2023-04-15T05:34:08.785Z,8.07
2023-04-15T05:36:37.224Z,7.97
2023-04-15T05:39:05.778Z,8.23
2023-04-15T05:41:34.673Z,8.80
2023-04-15T05:44:04.576Z,8.23
2023-04-15T05:46:32.896Z,7.70
2023-04-15T05:49:01.903Z,7.73
2023-04-15T05:51:30.465Z,7.67
2023-04-15T05:54:00.872Z,8.33
2023-04-15T05:56:29.283Z,8.50
2023-04-15T05:58:57.919Z,7.53
2023-04-15T06:01:27.862Z,7.60
2023-04-15T06:03:57.091Z,8.00
2023-04-15T06:06:25.726Z,8.47
2023-04-15T06:08:55.864Z,8.50
2023-04-15T06:11:24.358Z,7.93
2023-04-15T06:13:53.137Z,8.30
2023-04-15T06:16:22.094Z,8.27
2023-04-15T06:18:51.841Z,8.27
2023-04-15T06:21:20.350Z,8.80
2023-04-15T06:23:48.715Z,8.30
2023-04-15T06:26:17.055Z,8.50
2023-04-15T06:28:45.487Z,8.10
2023-04-15T06:31:13.994Z,8.53
2023-04-15T06:33:42.513Z,8.23
2023-04-15T06:36:12.450Z,8.33
2023-04-15T06:38:40.921Z,8.43
2023-04-15T06:41:09.342Z,8.17
2023-04-15T06:43:37.913Z,8.30
2023-04-15T06:46:06.484Z,8.47
2023-04-15T06:48:35.058Z,8.77
2023-04-15T06:51:04.133Z,8.43
2023-04-15T06:53:35.649Z,8.20
2023-04-15T06:56:04.045Z,8.57
2023-04-15T06:58:32.465Z,8.30
2023-04-15T07:01:01.259Z,7.97
2023-04-15T07:03:31.440Z,8.73
2023-04-15T07:06:01.796Z,8.07
2023-04-15T07:08:34.685Z,8.70
2023-04-15T07:11:03.248Z,8.93
2023-04-15T07:13:32.716Z,8.10
2023-04-15T07:16:01.369Z,8.47
2023-04-15T07:18:29.881Z,8.97
2023-04-15T07:20:58.364Z,8.47
2023-04-15T07:23:26.791Z,7.73
2023-04-15T07:25:57.428Z,8.43
2023-04-15T07:28:26.088Z,7.87
2023-04-15T07:30:54.752Z,7.90
2023-04-15T07:33:23.334Z,7.70
2023-04-15T07:35:51.737Z,7.83
2023-04-15T07:38:20.203Z,7.87
2023-04-15T07:40:48.551Z,8.27
2023-04-15T07:43:18.948Z,7.43
2023-04-15T07:45:47.377Z,8.30
2023-04-15T07:48:16.007Z,7.97
2023-04-15T07:50:44.523Z,7.87
2023-04-15T07:53:13.544Z,8.17
2023-04-15T07:55:41.920Z,8.30
2023-04-15T07:58:10.453Z,7.50
2023-04-15T08:00:40.731Z,8.50
2023-04-15T08:03:09.464Z,8.03
2023-04-15T08:05:38.154Z,7.50
2023-04-15T08:08:07.034Z,7.83
2023-04-15T08:10:35.403Z,8.10
2023-04-15T08:13:03.892Z,7.33
2023-04-15T08:15:33.185Z,8.10
2023-04-15T08:18:02.936Z,8.63
2023-04-15T08:20:31.264Z,8.33
2023-04-15T08:22:59.780Z,8.23
2023-04-15T08:25:28.351Z,8.07
2023-04-15T08:27:57.676Z,8.20
2023-04-15T08:30:26.008Z,9.03
2023-04-15T08:32:54.524Z,8.93
2023-04-15T08:35:24.464Z,8.53
2023-04-15T08:37:52.858Z,8.47
2023-04-15T08:40:21.201Z,8.87
2023-04-15T08:42:50.880Z,8.80
2023-04-15T08:45:19.352Z,9.00
2023-04-15T08:47:47.700Z,8.43
2023-04-15T08:50:16.234Z,8.10
2023-04-15T08:52:45.917Z,7.97
2023-04-15T08:55:14.336Z,7.67
2023-04-15T08:57:42.702Z,8.57
2023-04-15T09:00:12.594Z,7.57
2023-04-15T09:02:41.465Z,7.73
2023-04-15T09:05:10.237Z,7.60
2023-04-15T09:07:38.686Z,7.17
2023-04-15T09:10:09.225Z,8.13
2023-04-15T09:12:38.041Z,7.57
2023-04-15T09:15:06.815Z,7.90
2023-04-15T09:17:35.587Z,6.93
2023-04-15T09:20:10.575Z,7.50
2023-04-15T09:22:39.082Z,7.40
2023-04-15T09:25:11.755Z,6.80
2023-04-15T09:27:40.168Z,7.50
2023-04-15T09:30:10.742Z,6.73
2023-04-15T09:32:39.164Z,6.67
2023-04-15T09:35:13.147Z,6.90
2023-04-15T09:37:41.656Z,6.13
2023-04-15T09:40:11.115Z,6.13
2023-04-15T09:42:40.986Z,6.13
2023-04-15T09:45:12.788Z,6.27
2023-04-15T09:47:41.515Z,5.23
2023-04-15T09:50:10.264Z,5.73
2023-04-15T09:52:41.556Z,5.60
2023-04-15T09:55:10.041Z,5.57
2023-04-15T09:57:38.558Z,6.13
2023-04-15T10:00:10.015Z,5.70
2023-04-15T10:02:38.540Z,5.90
2023-04-15T10:05:07.258Z,5.20
2023-04-15T10:07:36.244Z,5.53
2023-04-15T10:10:05.528Z,5.50
2023-04-15T10:12:34.253Z,5.90
2023-04-15T10:15:02.958Z,5.30
2023-04-15T10:17:33.906Z,5.67
2023-04-15T10:20:03.119Z,4.53
2023-04-15T10:22:31.962Z,3.40
2023-04-15T10:25:01.316Z,3.53
2023-04-15T10:27:30.024Z,3.20
2023-04-15T10:29:58.520Z,3.40
2023-04-15T10:32:27.176Z,4.00
2023-04-15T10:34:56.993Z,3.23
2023-04-15T10:37:27.559Z,3.40
2023-04-15T10:39:56.254Z,3.00
2023-04-15T10:42:24.610Z,2.60
2023-04-15T10:44:53.196Z,2.40
2023-04-15T10:47:21.999Z,2.37
2023-04-15T10:49:51.112Z,2.70
2023-04-15T10:52:24.297Z,2.70
2023-04-15T10:55:04.628Z,2.50
2023-04-15T10:57:36.683Z,2.53
2023-04-15T11:00:16.758Z,2.90
2023-04-15T11:02:46.515Z,3.20
2023-04-15T11:05:18.112Z,3.03
2023-04-15T11:07:52.850Z,2.77
2023-04-15T11:10:57.681Z,3.20
2023-04-15T11:13:31.419Z,2.97
2023-04-15T11:16:01.994Z,3.00
2023-04-15T11:18:31.920Z,3.03
2023-04-15T11:21:01.165Z,3.33
2023-04-15T11:23:31.818Z,2.60
2023-04-15T11:26:00.731Z,2.77
2023-04-15T11:28:29.176Z,2.73
2023-04-15T11:30:57.570Z,2.70
2023-04-15T11:33:26.082Z,3.20
2023-04-15T11:35:55.139Z,2.30
2023-04-15T11:38:23.690Z,2.90
2023-04-15T11:40:53.520Z,2.97
2023-04-15T11:43:22.320Z,3.23
2023-04-15T11:45:51.801Z,3.77
2023-04-15T11:48:20.275Z,3.40
2023-04-15T11:50:48.691Z,3.33
2023-04-15T11:53:17.220Z,3.60
2023-04-15T11:55:47.003Z,3.60
2023-04-15T11:58:17.369Z,3.60
2023-04-15T12:00:49.384Z,3.90
2023-04-15T12:03:21.735Z,3.97
2023-04-15T12:06:08.939Z,3.90
2023-04-15T12:08:56.285Z,3.23
2023-04-15T12:11:29.648Z,4.00
2023-04-15T12:13:59.590Z,4.10
2023-04-15T12:16:29.708Z,3.70
2023-04-15T12:18:58.878Z,3.83
2023-04-15T12:21:27.889Z,3.80
2023-04-15T12:23:56.570Z,3.77
2023-04-15T12:26:28.559Z,3.47
2023-04-15T12:28:57.411Z,3.33
2023-04-15T12:31:27.232Z,3.37
2023-04-15T12:33:57.088Z,3.50
2023-04-15T12:36:25.568Z,4.00
2023-04-15T12:38:53.979Z,4.40
2023-04-15T12:41:24.455Z,3.90
2023-04-15T12:43:52.974Z,3.40
2023-04-15T12:46:21.813Z,4.10
2023-04-15T12:48:52.272Z,3.50
2023-04-15T12:51:21.455Z,3.37
2023-04-15T12:53:50.598Z,3.63
2023-04-15T12:56:19.252Z,3.30
2023-04-15T12:58:47.613Z,3.10
2023-04-15T13:01:15.994Z,3.23
2023-04-15T13:03:45.580Z,3.23
2023-04-15T13:06:15.525Z,2.70
2023-04-15T13:08:57.434Z,2.87
2023-04-15T13:11:26.622Z,2.50
2023-04-15T13:13:55.001Z,2.77
2023-04-15T13:16:23.959Z,3.10
2023-04-15T13:18:52.357Z,2.40
2023-04-15T13:21:22.092Z,2.60
2023-04-15T13:23:50.971Z,2.50
2023-04-15T13:26:19.614Z,2.70
2023-04-15T13:28:48.201Z,2.57
2023-04-15T13:31:16.677Z,2.40
2023-04-15T13:33:45.128Z,2.77
2023-04-15T13:36:13.541Z,2.47
2023-04-15T13:38:43.397Z,2.67
2023-04-15T13:41:11.834Z,3.00
2023-04-15T13:43:40.793Z,2.90
2023-04-15T13:46:09.338Z,2.60
2023-04-15T13:48:37.828Z,2.77
2023-04-15T13:51:06.649Z,2.30
2023-04-15T13:53:38.144Z,2.87
2023-04-15T13:56:09.505Z,3.27
2023-04-15T13:58:38.114Z,2.90
2023-04-15T14:01:07.225Z,2.43
2023-04-15T14:03:36.835Z,3.17
2023-04-15T14:06:05.750Z,2.80
2023-04-15T14:08:34.432Z,2.60
2023-04-15T14:11:03.062Z,2.93
2023-04-15T14:13:32.908Z,2.60
2023-04-15T14:16:02.513Z,2.33
2023-04-15T14:18:30.945Z,2.60
2023-04-15T14:20:59.451Z,2.10
2023-04-15T14:23:27.816Z,2.20
2023-04-15T14:25:56.279Z,2.10
2023-04-15T14:28:24.867Z,2.20
2023-04-15T14:30:54.717Z,2.27
2023-04-15T14:33:23.197Z,2.27
2023-04-15T14:35:51.631Z,2.70
2023-04-15T14:38:22.661Z,2.60
2023-04-15T14:40:51.199Z,3.00
2023-04-15T14:43:19.840Z,2.10
2023-04-15T14:45:48.267Z,2.77
2023-04-15T14:48:18.260Z,2.60
2023-04-15T14:50:46.735Z,2.50
2023-04-15T14:53:15.109Z,2.90
2023-04-15T14:55:43.735Z,3.53
2023-04-15T14:58:12.120Z,3.07
2023-04-15T15:00:42.078Z,3.10
2023-04-15T15:03:13.564Z,2.33
2023-04-15T15:05:43.616Z,2.70
2023-04-15T15:08:12.011Z,3.23
2023-04-15T15:10:48.456Z,2.70
2023-04-15T15:13:18.141Z,2.90
2023-04-15T15:15:46.522Z,3.00
2023-04-15T15:18:14.942Z,2.53
2023-04-15T15:20:44.700Z,2.60
2023-04-15T15:23:13.792Z,2.97
2023-04-15T15:25:42.086Z,2.80
2023-04-15T15:28:11.326Z,2.70
2023-04-15T15:30:39.707Z,3.20
2023-04-15T15:33:08.204Z,3.10
2023-04-15T15:35:36.526Z,3.83
2023-04-15T15:38:06.493Z,2.90
2023-04-15T15:40:34.894Z,2.90
2023-04-15T15:43:03.285Z,2.77
2023-04-15T15:45:31.756Z,2.60
2023-04-15T15:48:00.341Z,3.00
2023-04-15T15:50:28.825Z,2.97
2023-04-15T15:52:58.601Z,2.53
2023-04-15T15:55:28.472Z,3.50
2023-04-15T15:57:56.891Z,3.10
2023-04-15T16:00:25.269Z,3.30
2023-04-15T16:03:06.784Z,3.20
2023-04-15T16:05:36.006Z,2.73
2023-04-15T16:08:04.603Z,2.80
2023-04-15T16:10:34.434Z,3.43
2023-04-15T16:13:03.015Z,2.70
2023-04-15T16:15:31.386Z,2.60
2023-04-15T16:17:59.827Z,2.97
2023-04-15T16:20:28.937Z,2.83
2023-04-15T16:22:58.285Z,2.77
2023-04-15T16:25:26.803Z,3.00
2023-04-15T16:28:08.525Z,2.77
2023-04-15T16:30:43.735Z,2.97
2023-04-15T16:33:27.001Z,2.50
2023-04-15T16:35:55.599Z,3.40
2023-04-15T16:38:24.166Z,3.30
2023-04-15T16:40:52.787Z,4.00
2023-04-15T16:43:22.573Z,3.10
2023-04-15T16:45:51.608Z,3.00
2023-04-15T16:48:20.293Z,2.80
2023-04-15T16:50:49.012Z,2.40
2023-04-15T16:53:17.543Z,2.10
2023-04-15T16:55:46.060Z,2.70
2023-04-15T16:58:14.564Z,2.70
2023-04-15T17:00:44.365Z,2.63
2023-04-15T17:03:12.950Z,2.33
2023-04-15T17:05:42.553Z,2.40
2023-04-15T17:08:11.062Z,2.53
2023-04-15T17:10:39.525Z,2.57
2023-04-15T17:13:07.974Z,2.57
2023-04-15T17:15:36.615Z,2.27
2023-04-15T17:18:06.585Z,2.13
2023-04-15T17:20:34.927Z,2.83
2023-04-15T17:23:03.343Z,1.67
2023-04-15T17:25:31.938Z,2.27
2023-04-15T17:28:00.417Z,2.23
2023-04-15T17:30:28.808Z,2.30
2023-04-15T17:33:55.422Z,1.97
2023-04-15T17:35:56.561Z,1.67
2023-04-15T17:38:24.974Z,1.93
2023-04-15T17:40:53.356Z,1.80
2023-04-15T17:43:25.036Z,1.97
2023-04-15T17:45:53.549Z,1.90
2023-04-15T17:48:23.651Z,2.00
2023-04-15T17:50:52.227Z,1.90
2023-04-15T17:53:20.633Z,2.47
2023-04-15T17:55:50.442Z,2.17
2023-04-15T17:58:19.061Z,2.20
2023-04-15T18:00:47.616Z,1.70
2023-04-15T18:03:16.316Z,1.90
2023-04-15T18:05:46.293Z,2.00
2023-04-15T18:08:14.782Z,2.07
2023-04-15T18:10:43.461Z,1.53
2023-04-15T18:13:12.012Z,1.60
2023-04-15T18:15:40.340Z,3.37
2023-04-15T18:18:08.700Z,2.33
2023-04-15T18:20:37.087Z,2.53
2023-04-15T18:23:06.911Z,1.97
2023-04-15T18:25:35.441Z,2.03
2023-04-15T18:28:03.965Z,1.77
2023-04-15T18:30:32.342Z,1.80
2023-04-15T18:33:00.860Z,1.77
2023-04-15T18:35:29.914Z,1.67
2023-04-15T18:37:58.435Z,1.80
2023-04-15T18:40:28.281Z,1.60
2023-04-15T18:42:57.020Z,1.73
2023-04-15T18:45:25.413Z,1.90
2023-04-15T18:47:53.986Z,1.80
2023-04-15T18:50:22.658Z,1.97
2023-04-15T18:52:51.046Z,1.60
2023-04-15T18:55:19.605Z,2.07
2023-04-15T18:57:49.359Z,1.87
2023-04-15T19:00:18.239Z,1.50
2023-04-15T19:02:46.713Z,1.90
2023-04-15T19:05:15.162Z,1.80
2023-04-15T19:07:43.542Z,1.90
2023-04-15T19:10:12.435Z,2.20
2023-04-15T19:12:41.074Z,1.73
2023-04-15T19:15:11.485Z,1.67
2023-04-15T19:17:39.947Z,1.87
2023-04-15T19:20:09.018Z,1.83
2023-04-15T19:22:37.767Z,2.23
2023-04-15T19:25:06.513Z,2.40
2023-04-15T19:27:34.960Z,2.00
2023-04-15T19:30:04.268Z,2.00
2023-04-15T19:32:34.096Z,1.90
2023-04-15T19:35:02.520Z,1.67
2023-04-15T19:37:30.918Z,1.70
2023-04-15T19:39:59.332Z,1.57
2023-04-15T19:42:27.783Z,1.73
2023-04-15T19:44:56.180Z,1.67
2023-04-15T19:47:32.358Z,2.10
2023-04-15T19:50:02.268Z,2.40
2023-04-15T19:52:31.454Z,2.53
2023-04-15T19:54:59.778Z,2.30
2023-04-15T19:57:28.206Z,1.80
2023-04-15T19:59:56.655Z,1.83
2023-04-15T20:02:25.362Z,2.10
2023-04-15T20:04:53.876Z,1.70
2023-04-15T20:07:23.682Z,2.07
2023-04-15T20:09:52.602Z,1.93
2023-04-15T20:12:50.785Z,1.60
2023-04-15T20:15:09.649Z,1.70
2023-04-15T20:17:38.107Z,1.80
2023-04-15T20:20:06.970Z,1.57
2023-04-15T20:22:36.852Z,1.60
2023-04-15T20:25:06.187Z,1.60
2023-04-15T20:27:34.671Z,1.70
2023-04-15T20:30:04.337Z,2.20
2023-04-15T20:32:35.438Z,2.10
2023-04-15T20:35:04.444Z,1.87
2023-04-15T20:37:33.571Z,1.60
2023-04-15T20:40:03.612Z,1.93
2023-04-15T20:42:34.237Z,1.80
2023-04-15T20:45:02.937Z,1.80
2023-04-15T20:47:31.404Z,1.63
2023-04-15T20:49:59.935Z,1.60
2023-04-15T20:52:28.344Z,1.70
2023-04-15T20:54:56.753Z,1.57
2023-04-15T20:57:26.500Z,1.53
2023-04-15T20:59:55.077Z,1.57
2023-04-15T21:02:24.364Z,2.03
2023-04-15T21:04:52.945Z,1.87
2023-04-15T21:07:21.369Z,1.40
2023-04-15T21:09:49.812Z,1.27
2023-04-15T21:12:18.173Z,1.40
2023-04-15T21:14:47.952Z,1.53
2023-04-15T21:17:16.363Z,1.73
2023-04-15T21:19:45.027Z,1.50
2023-04-15T21:22:13.443Z,2.07
2023-04-15T21:24:41.901Z,1.37
2023-04-15T21:27:10.919Z,1.50
2023-04-15T21:29:40.493Z,1.50
2023-04-15T21:32:10.454Z,1.47
2023-04-15T21:34:38.923Z,1.33
2023-04-15T21:37:07.435Z,1.60
2023-04-15T21:39:35.838Z,1.30
2023-04-15T21:42:04.480Z,1.30
2023-04-15T21:44:33.155Z,1.23
2023-04-15T21:47:02.176Z,1.53
2023-04-15T21:49:32.309Z,1.93
2023-04-15T21:52:01.378Z,1.80
2023-04-15T21:54:31.289Z,1.97
2023-04-15T21:57:00.681Z,1.73
2023-04-15T21:59:29.068Z,1.30
2023-04-15T22:01:57.582Z,1.33
2023-04-15T22:04:26.495Z,1.10
2023-04-15T22:07:01.671Z,1.37
2023-04-15T22:09:30.968Z,1.33
2023-04-15T22:12:01.020Z,1.60
2023-04-15T22:14:29.686Z,1.60
2023-04-15T22:16:58.119Z,1.50
2023-04-15T22:19:27.253Z,1.50
2023-04-15T22:21:57.431Z,1.40
2023-04-15T22:24:38.602Z,1.60
2023-04-15T22:27:08.512Z,1.30
2023-04-15T22:29:40.429Z,1.43
2023-04-15T22:32:09.074Z,1.40
2023-04-15T22:34:37.829Z,1.37
2023-04-15T22:37:08.003Z,1.67
2023-04-15T22:39:36.525Z,2.10
2023-04-15T22:42:05.409Z,1.53
2023-04-15T22:44:33.910Z,1.97
2023-04-15T22:47:02.310Z,2.10
2023-04-15T22:49:31.021Z,1.67
2023-04-15T22:51:59.372Z,1.47
2023-04-15T22:54:30.099Z,1.60
2023-04-15T22:56:59.003Z,1.60
2023-04-15T22:59:27.452Z,1.70
2023-04-15T23:01:58.157Z,1.70
2023-04-15T23:04:27.713Z,1.70
2023-04-15T23:06:56.807Z,1.70
2023-04-15T23:09:25.302Z,1.53
2023-04-15T23:11:56.336Z,1.50
2023-04-15T23:14:26.203Z,1.40
2023-04-15T23:16:54.693Z,1.80
2023-04-15T23:19:23.215Z,1.53
2023-04-15T23:21:51.651Z,1.73
2023-04-15T23:24:20.160Z,1.43
2023-04-15T23:26:48.584Z,1.93
2023-04-15T23:29:18.506Z,2.43
2023-04-15T23:31:46.957Z,2.00
2023-04-15T23:34:15.818Z,2.37
2023-04-15T23:36:44.625Z,1.97
2023-04-15T23:39:13.019Z,3.13
2023-04-15T23:41:41.444Z,2.50
2023-04-15T23:44:09.837Z,2.90
2023-04-15T23:46:39.816Z,2.50
2023-04-15T23:49:08.415Z,2.73
2023-04-15T23:51:36.954Z,2.97
2023-04-15T23:54:05.348Z,2.40
2023-04-15T23:56:33.941Z,2.70
2023-04-15T23:59:02.312Z,2.80
